sensor_id;sensor_type;location;lat;lon;timestamp;P1;durP1;ratioP1;P2;durP2;ratioP2
56114;SDS011;41988;53.020;6.576;2022-10-31T00:00:54;37.60;;;20.15;;
56114;SDS011;41988;53.020;6.576;2022-10-31T00:03:39;45.90;;;21.85;;
56114;SDS011;41988;53.020;6.576;2022-10-31T00:06:24;40.55;;;22.13;;
56114;SDS011;41988;53.020;6.576;2022-10-31T00:09:09;41.65;;;21.58;;
56114;SDS011;41988;53.020;6.576;2022-10-31T00:11:54;41.22;;;21.33;;
56114;SDS011;41988;53.020;6.576;2022-10-31T00:14:38;43.13;;;21.27;;
56114;SDS011;41988;53.020;6.576;2022-10-31T00:17:23;39.22;;;21.33;;
56114;SDS011;41988;53.020;6.576;2022-10-31T00:20:07;37.97;;;20.98;;
56114;SDS011;41988;53.020;6.576;2022-10-31T00:22:52;42.28;;;21.80;;
56114;SDS011;41988;53.020;6.576;2022-10-31T00:25:38;40.55;;;20.05;;
56114;SDS011;41988;53.020;6.576;2022-10-31T00:28:22;38.83;;;21.40;;
56114;SDS011;41988;53.020;6.576;2022-10-31T00:31:07;38.83;;;20.30;;
56114;SDS011;41988;53.020;6.576;2022-10-31T00:33:53;41.95;;;19.83;;
56114;SDS011;41988;53.020;6.576;2022-10-31T00:36:37;39.30;;;20.23;;
56114;SDS011;41988;53.020;6.576;2022-10-31T00:39:22;39.63;;;19.90;;
56114;SDS011;41988;53.020;6.576;2022-10-31T00:42:06;37.88;;;19.60;;
56114;SDS011;41988;53.020;6.576;2022-10-31T00:44:51;34.20;;;19.50;;
56114;SDS011;41988;53.020;6.576;2022-10-31T00:47:36;43.70;;;21.20;;
56114;SDS011;41988;53.020;6.576;2022-10-31T00:50:20;37.05;;;20.15;;
56114;SDS011;41988;53.020;6.576;2022-10-31T00:53:05;37.47;;;21.10;;
56114;SDS011;41988;53.020;6.576;2022-10-31T00:55:50;40.10;;;22.05;;
56114;SDS011;41988;53.020;6.576;2022-10-31T00:58:35;38.55;;;19.77;;
56114;SDS011;41988;53.020;6.576;2022-10-31T01:01:19;36.30;;;20.98;;
56114;SDS011;41988;53.020;6.576;2022-10-31T01:04:04;45.05;;;21.40;;
56114;SDS011;41988;53.020;6.576;2022-10-31T01:06:48;41.42;;;20.00;;
56114;SDS011;41988;53.020;6.576;2022-10-31T01:09:33;37.50;;;18.27;;
56114;SDS011;41988;53.020;6.576;2022-10-31T01:12:18;36.88;;;19.70;;
56114;SDS011;41988;53.020;6.576;2022-10-31T01:15:02;32.63;;;18.80;;
56114;SDS011;41988;53.020;6.576;2022-10-31T01:17:47;32.03;;;18.83;;
56114;SDS011;41988;53.020;6.576;2022-10-31T01:20:32;38.17;;;20.50;;
56114;SDS011;41988;53.020;6.576;2022-10-31T01:23:17;31.20;;;19.40;;
56114;SDS011;41988;53.020;6.576;2022-10-31T01:26:18;34.80;;;19.08;;
56114;SDS011;41988;53.020;6.576;2022-10-31T01:29:05;31.40;;;18.25;;
56114;SDS011;41988;53.020;6.576;2022-10-31T01:31:51;34.45;;;18.02;;
56114;SDS011;41988;53.020;6.576;2022-10-31T01:34:35;33.20;;;17.83;;
56114;SDS011;41988;53.020;6.576;2022-10-31T01:37:20;32.13;;;19.55;;
56114;SDS011;41988;53.020;6.576;2022-10-31T01:40:04;33.58;;;19.20;;
56114;SDS011;41988;53.020;6.576;2022-10-31T01:42:49;33.58;;;18.35;;
56114;SDS011;41988;53.020;6.576;2022-10-31T01:45:34;34.83;;;18.92;;
56114;SDS011;41988;53.020;6.576;2022-10-31T01:48:20;32.70;;;18.88;;
56114;SDS011;41988;53.020;6.576;2022-10-31T01:51:09;40.08;;;19.60;;
56114;SDS011;41988;53.020;6.576;2022-10-31T01:53:57;35.03;;;19.83;;
56114;SDS011;41988;53.020;6.576;2022-10-31T01:56:45;35.60;;;19.58;;
56114;SDS011;41988;53.020;6.576;2022-10-31T01:59:33;33.72;;;18.23;;
56114;SDS011;41988;53.020;6.576;2022-10-31T02:02:21;35.95;;;18.27;;
56114;SDS011;41988;53.020;6.576;2022-10-31T02:05:06;31.67;;;18.38;;
56114;SDS011;41988;53.020;6.576;2022-10-31T02:07:58;35.90;;;19.08;;
56114;SDS011;41988;53.020;6.576;2022-10-31T02:10:43;29.35;;;18.30;;
56114;SDS011;41988;53.020;6.576;2022-10-31T02:13:28;29.42;;;17.58;;
56114;SDS011;41988;53.020;6.576;2022-10-31T02:16:13;31.35;;;17.90;;
56114;SDS011;41988;53.020;6.576;2022-10-31T02:18:58;29.70;;;18.35;;
56114;SDS011;41988;53.020;6.576;2022-10-31T02:21:44;30.65;;;16.95;;
56114;SDS011;41988;53.020;6.576;2022-10-31T02:27:37;28.23;;;17.70;;
56114;SDS011;41988;53.020;6.576;2022-10-31T02:30:30;29.10;;;17.50;;
56114;SDS011;41988;53.020;6.576;2022-10-31T02:33:30;29.30;;;17.33;;
56114;SDS011;41988;53.020;6.576;2022-10-31T02:36:43;25.35;;;17.15;;
56114;SDS011;41988;53.020;6.576;2022-10-31T02:39:47;30.27;;;19.60;;
56114;SDS011;41988;53.020;6.576;2022-10-31T02:48:54;31.38;;;19.80;;
56114;SDS011;41988;53.020;6.576;2022-10-31T02:51:44;35.72;;;19.15;;
56114;SDS011;41988;53.020;6.576;2022-10-31T02:54:30;34.67;;;19.63;;
56114;SDS011;41988;53.020;6.576;2022-10-31T02:57:15;32.70;;;19.50;;
56114;SDS011;41988;53.020;6.576;2022-10-31T03:00:05;35.40;;;20.85;;
56114;SDS011;41988;53.020;6.576;2022-10-31T03:08:50;32.60;;;18.83;;
56114;SDS011;41988;53.020;6.576;2022-10-31T03:21:10;33.47;;;19.60;;
56114;SDS011;41988;53.020;6.576;2022-10-31T03:23:56;26.88;;;19.20;;
56114;SDS011;41988;53.020;6.576;2022-10-31T03:26:46;35.65;;;19.92;;
56114;SDS011;41988;53.020;6.576;2022-10-31T03:29:35;40.25;;;19.48;;
56114;SDS011;41988;53.020;6.576;2022-10-31T03:32:22;30.13;;;19.73;;
56114;SDS011;41988;53.020;6.576;2022-10-31T03:35:13;29.45;;;19.55;;
56114;SDS011;41988;53.020;6.576;2022-10-31T03:38:01;31.88;;;18.77;;
56114;SDS011;41988;53.020;6.576;2022-10-31T03:40:47;33.50;;;19.13;;
56114;SDS011;41988;53.020;6.576;2022-10-31T03:43:36;33.65;;;19.02;;
56114;SDS011;41988;53.020;6.576;2022-10-31T03:46:26;38.67;;;21.10;;
56114;SDS011;41988;53.020;6.576;2022-10-31T03:49:11;36.60;;;19.83;;
56114;SDS011;41988;53.020;6.576;2022-10-31T03:52:02;36.08;;;21.48;;
56114;SDS011;41988;53.020;6.576;2022-10-31T03:55:16;33.80;;;18.90;;
56114;SDS011;41988;53.020;6.576;2022-10-31T03:58:16;32.25;;;20.02;;
56114;SDS011;41988;53.020;6.576;2022-10-31T04:01:07;26.98;;;18.10;;
56114;SDS011;41988;53.020;6.576;2022-10-31T04:03:55;29.98;;;18.63;;
56114;SDS011;41988;53.020;6.576;2022-10-31T04:06:41;30.00;;;19.13;;
56114;SDS011;41988;53.020;6.576;2022-10-31T04:09:27;30.63;;;18.63;;
56114;SDS011;41988;53.020;6.576;2022-10-31T04:12:16;28.98;;;18.40;;
56114;SDS011;41988;53.020;6.576;2022-10-31T04:15:01;27.55;;;18.80;;
56114;SDS011;41988;53.020;6.576;2022-10-31T04:17:48;33.10;;;20.80;;
56114;SDS011;41988;53.020;6.576;2022-10-31T04:20:37;34.05;;;20.02;;
56114;SDS011;41988;53.020;6.576;2022-10-31T04:23:23;31.92;;;19.45;;
56114;SDS011;41988;53.020;6.576;2022-10-31T04:26:12;29.35;;;19.75;;
56114;SDS011;41988;53.020;6.576;2022-10-31T04:28:56;36.10;;;20.45;;
56114;SDS011;41988;53.020;6.576;2022-10-31T04:31:41;36.30;;;20.85;;
56114;SDS011;41988;53.020;6.576;2022-10-31T04:34:25;36.20;;;20.83;;
56114;SDS011;41988;53.020;6.576;2022-10-31T04:37:10;35.80;;;21.45;;
56114;SDS011;41988;53.020;6.576;2022-10-31T04:39:54;41.17;;;22.48;;
56114;SDS011;41988;53.020;6.576;2022-10-31T04:42:39;36.20;;;21.38;;
56114;SDS011;41988;53.020;6.576;2022-10-31T04:45:23;42.53;;;22.30;;
56114;SDS011;41988;53.020;6.576;2022-10-31T04:48:08;32.17;;;19.13;;
56114;SDS011;41988;53.020;6.576;2022-10-31T04:50:52;35.10;;;20.25;;
56114;SDS011;41988;53.020;6.576;2022-10-31T04:53:37;37.60;;;21.42;;
56114;SDS011;41988;53.020;6.576;2022-10-31T04:56:21;34.55;;;20.15;;
56114;SDS011;41988;53.020;6.576;2022-10-31T04:59:06;30.83;;;19.45;;
56114;SDS011;41988;53.020;6.576;2022-10-31T05:01:50;35.50;;;20.27;;
56114;SDS011;41988;53.020;6.576;2022-10-31T05:04:35;33.70;;;18.80;;
56114;SDS011;41988;53.020;6.576;2022-10-31T05:07:19;33.72;;;19.00;;
56114;SDS011;41988;53.020;6.576;2022-10-31T05:10:04;31.27;;;20.30;;
56114;SDS011;41988;53.020;6.576;2022-10-31T05:12:49;32.17;;;18.25;;
56114;SDS011;41988;53.020;6.576;2022-10-31T05:15:38;31.65;;;18.25;;
56114;SDS011;41988;53.020;6.576;2022-10-31T05:18:22;32.80;;;19.00;;
56114;SDS011;41988;53.020;6.576;2022-10-31T05:21:07;29.35;;;19.88;;
56114;SDS011;41988;53.020;6.576;2022-10-31T05:23:51;36.47;;;20.08;;
56114;SDS011;41988;53.020;6.576;2022-10-31T05:26:36;28.80;;;18.15;;
56114;SDS011;41988;53.020;6.576;2022-10-31T05:29:20;33.85;;;20.08;;
56114;SDS011;41988;53.020;6.576;2022-10-31T05:32:05;38.15;;;21.10;;
56114;SDS011;41988;53.020;6.576;2022-10-31T05:34:49;36.85;;;20.92;;
56114;SDS011;41988;53.020;6.576;2022-10-31T05:37:37;42.85;;;23.60;;
56114;SDS011;41988;53.020;6.576;2022-10-31T05:40:21;38.70;;;22.15;;
56114;SDS011;41988;53.020;6.576;2022-10-31T05:43:06;34.63;;;21.45;;
56114;SDS011;41988;53.020;6.576;2022-10-31T05:45:54;43.03;;;22.65;;
56114;SDS011;41988;53.020;6.576;2022-10-31T05:48:39;30.00;;;19.08;;
56114;SDS011;41988;53.020;6.576;2022-10-31T05:51:23;36.25;;;19.65;;
56114;SDS011;41988;53.020;6.576;2022-10-31T05:54:08;37.15;;;21.15;;
56114;SDS011;41988;53.020;6.576;2022-10-31T05:56:52;38.38;;;22.88;;
56114;SDS011;41988;53.020;6.576;2022-10-31T05:59:37;38.13;;;21.83;;
56114;SDS011;41988;53.020;6.576;2022-10-31T06:02:21;38.38;;;22.60;;
56114;SDS011;41988;53.020;6.576;2022-10-31T06:05:06;49.47;;;23.35;;
56114;SDS011;41988;53.020;6.576;2022-10-31T06:07:51;33.38;;;20.42;;
56114;SDS011;41988;53.020;6.576;2022-10-31T06:10:36;35.83;;;21.92;;
56114;SDS011;41988;53.020;6.576;2022-10-31T06:13:20;37.40;;;23.08;;
56114;SDS011;41988;53.020;6.576;2022-10-31T06:16:05;38.47;;;21.67;;
56114;SDS011;41988;53.020;6.576;2022-10-31T06:18:50;30.92;;;19.40;;
56114;SDS011;41988;53.020;6.576;2022-10-31T06:21:34;38.65;;;21.48;;
56114;SDS011;41988;53.020;6.576;2022-10-31T06:24:19;29.05;;;19.45;;
56114;SDS011;41988;53.020;6.576;2022-10-31T06:27:04;30.20;;;19.23;;
56114;SDS011;41988;53.020;6.576;2022-10-31T06:29:48;31.02;;;20.30;;
56114;SDS011;41988;53.020;6.576;2022-10-31T06:32:33;33.13;;;19.88;;
56114;SDS011;41988;53.020;6.576;2022-10-31T06:35:18;41.97;;;20.13;;
56114;SDS011;41988;53.020;6.576;2022-10-31T06:38:03;34.30;;;21.92;;
56114;SDS011;41988;53.020;6.576;2022-10-31T06:40:47;42.33;;;22.85;;
56114;SDS011;41988;53.020;6.576;2022-10-31T06:43:32;44.92;;;24.58;;
56114;SDS011;41988;53.020;6.576;2022-10-31T06:46:16;37.40;;;22.17;;
56114;SDS011;41988;53.020;6.576;2022-10-31T06:49:01;40.67;;;23.45;;
56114;SDS011;41988;53.020;6.576;2022-10-31T06:51:49;41.35;;;23.13;;
56114;SDS011;41988;53.020;6.576;2022-10-31T06:54:33;42.95;;;24.20;;
56114;SDS011;41988;53.020;6.576;2022-10-31T06:57:18;38.47;;;22.60;;
56114;SDS011;41988;53.020;6.576;2022-10-31T07:00:02;42.42;;;22.73;;
56114;SDS011;41988;53.020;6.576;2022-10-31T07:02:57;37.03;;;23.35;;
56114;SDS011;41988;53.020;6.576;2022-10-31T07:05:48;42.33;;;23.42;;
56114;SDS011;41988;53.020;6.576;2022-10-31T07:08:33;44.33;;;23.75;;
56114;SDS011;41988;53.020;6.576;2022-10-31T07:11:17;43.03;;;25.23;;
56114;SDS011;41988;53.020;6.576;2022-10-31T07:14:02;46.65;;;25.20;;
56114;SDS011;41988;53.020;6.576;2022-10-31T07:16:49;51.38;;;26.95;;
56114;SDS011;41988;53.020;6.576;2022-10-31T07:19:34;41.33;;;24.95;;
56114;SDS011;41988;53.020;6.576;2022-10-31T07:22:18;41.00;;;24.38;;
56114;SDS011;41988;53.020;6.576;2022-10-31T07:25:03;39.50;;;22.55;;
56114;SDS011;41988;53.020;6.576;2022-10-31T07:27:48;36.20;;;23.25;;
56114;SDS011;41988;53.020;6.576;2022-10-31T07:30:33;37.42;;;22.52;;
56114;SDS011;41988;53.020;6.576;2022-10-31T07:33:18;40.97;;;22.67;;
56114;SDS011;41988;53.020;6.576;2022-10-31T07:36:02;49.83;;;25.42;;
56114;SDS011;41988;53.020;6.576;2022-10-31T07:38:47;44.50;;;24.33;;
56114;SDS011;41988;53.020;6.576;2022-10-31T07:41:31;41.13;;;23.98;;
56114;SDS011;41988;53.020;6.576;2022-10-31T07:44:16;41.92;;;24.75;;
56114;SDS011;41988;53.020;6.576;2022-10-31T07:47:00;37.17;;;23.33;;
56114;SDS011;41988;53.020;6.576;2022-10-31T07:49:45;42.08;;;25.13;;
56114;SDS011;41988;53.020;6.576;2022-10-31T07:52:29;35.75;;;23.55;;
56114;SDS011;41988;53.020;6.576;2022-10-31T07:55:14;39.80;;;24.00;;
56114;SDS011;41988;53.020;6.576;2022-10-31T07:58:00;43.25;;;25.63;;
56114;SDS011;41988;53.020;6.576;2022-10-31T08:00:45;38.28;;;24.13;;
56114;SDS011;41988;53.020;6.576;2022-10-31T08:03:30;35.45;;;23.20;;
56114;SDS011;41988;53.020;6.576;2022-10-31T08:06:14;34.22;;;23.25;;
56114;SDS011;41988;53.020;6.576;2022-10-31T08:08:59;36.65;;;23.98;;
56114;SDS011;41988;53.020;6.576;2022-10-31T08:11:43;33.13;;;23.50;;
56114;SDS011;41988;53.020;6.576;2022-10-31T08:14:28;36.05;;;23.83;;
56114;SDS011;41988;53.020;6.576;2022-10-31T08:17:12;32.25;;;20.85;;
56114;SDS011;41988;53.020;6.576;2022-10-31T08:19:57;35.75;;;22.08;;
56114;SDS011;41988;53.020;6.576;2022-10-31T08:22:41;30.10;;;21.17;;
56114;SDS011;41988;53.020;6.576;2022-10-31T08:25:26;38.03;;;22.92;;
56114;SDS011;41988;53.020;6.576;2022-10-31T08:28:12;33.85;;;22.10;;
56114;SDS011;41988;53.020;6.576;2022-10-31T08:30:58;31.10;;;20.05;;
56114;SDS011;41988;53.020;6.576;2022-10-31T08:33:42;33.38;;;20.63;;
56114;SDS011;41988;53.020;6.576;2022-10-31T08:36:27;26.35;;;18.65;;
56114;SDS011;41988;53.020;6.576;2022-10-31T08:39:12;26.25;;;17.95;;
56114;SDS011;41988;53.020;6.576;2022-10-31T08:41:56;22.20;;;17.33;;
56114;SDS011;41988;53.020;6.576;2022-10-31T08:44:41;24.13;;;16.20;;
56114;SDS011;41988;53.020;6.576;2022-10-31T08:47:25;28.20;;;17.38;;
56114;SDS011;41988;53.020;6.576;2022-10-31T08:50:11;20.50;;;14.15;;
56114;SDS011;41988;53.020;6.576;2022-10-31T08:53:02;22.55;;;14.60;;
56114;SDS011;41988;53.020;6.576;2022-10-31T08:55:54;20.67;;;14.13;;
56114;SDS011;41988;53.020;6.576;2022-10-31T08:58:39;17.98;;;13.70;;
56114;SDS011;41988;53.020;6.576;2022-10-31T09:01:23;19.88;;;14.90;;
56114;SDS011;41988;53.020;6.576;2022-10-31T09:04:08;18.73;;;13.95;;
56114;SDS011;41988;53.020;6.576;2022-10-31T09:06:53;21.48;;;14.57;;
56114;SDS011;41988;53.020;6.576;2022-10-31T09:09:38;22.50;;;14.95;;
56114;SDS011;41988;53.020;6.576;2022-10-31T09:12:22;20.85;;;14.23;;
56114;SDS011;41988;53.020;6.576;2022-10-31T09:15:08;24.38;;;14.73;;
56114;SDS011;41988;53.020;6.576;2022-10-31T09:17:52;21.00;;;15.60;;
56114;SDS011;41988;53.020;6.576;2022-10-31T09:20:37;21.50;;;14.95;;
56114;SDS011;41988;53.020;6.576;2022-10-31T09:23:23;22.13;;;15.40;;
56114;SDS011;41988;53.020;6.576;2022-10-31T09:26:07;26.35;;;15.65;;
56114;SDS011;41988;53.020;6.576;2022-10-31T09:28:52;21.48;;;16.23;;
56114;SDS011;41988;53.020;6.576;2022-10-31T09:31:37;20.77;;;15.77;;
56114;SDS011;41988;53.020;6.576;2022-10-31T09:34:21;22.50;;;16.23;;
56114;SDS011;41988;53.020;6.576;2022-10-31T09:37:06;24.52;;;17.45;;
56114;SDS011;41988;53.020;6.576;2022-10-31T09:39:51;23.13;;;15.80;;
56114;SDS011;41988;53.020;6.576;2022-10-31T09:42:39;24.20;;;17.05;;
56114;SDS011;41988;53.020;6.576;2022-10-31T09:52:00;23.95;;;18.05;;
56114;SDS011;41988;53.020;6.576;2022-10-31T09:54:52;29.10;;;19.10;;
56114;SDS011;41988;53.020;6.576;2022-10-31T09:57:37;22.75;;;17.35;;
56114;SDS011;41988;53.020;6.576;2022-10-31T10:00:22;26.73;;;19.02;;
56114;SDS011;41988;53.020;6.576;2022-10-31T10:03:10;25.17;;;18.92;;
56114;SDS011;41988;53.020;6.576;2022-10-31T10:06:29;26.75;;;18.98;;
56114;SDS011;41988;53.020;6.576;2022-10-31T10:09:18;26.38;;;19.60;;
56114;SDS011;41988;53.020;6.576;2022-10-31T10:17:46;31.00;;;19.50;;
56114;SDS011;41988;53.020;6.576;2022-10-31T10:20:56;23.55;;;19.23;;
56114;SDS011;41988;53.020;6.576;2022-10-31T10:24:12;31.85;;;20.25;;
56114;SDS011;41988;53.020;6.576;2022-10-31T10:33:32;25.20;;;18.33;;
56114;SDS011;41988;53.020;6.576;2022-10-31T10:36:41;26.85;;;17.98;;
56114;SDS011;41988;53.020;6.576;2022-10-31T10:39:41;26.23;;;17.50;;
56114;SDS011;41988;53.020;6.576;2022-10-31T10:42:29;23.95;;;16.48;;
56114;SDS011;41988;53.020;6.576;2022-10-31T10:45:33;26.05;;;16.77;;
56114;SDS011;41988;53.020;6.576;2022-10-31T10:48:41;24.27;;;16.25;;
56114;SDS011;41988;53.020;6.576;2022-10-31T10:52:13;22.98;;;15.38;;
56114;SDS011;41988;53.020;6.576;2022-10-31T11:03:15;24.95;;;14.13;;
56114;SDS011;41988;53.020;6.576;2022-10-31T11:06:00;25.83;;;14.23;;
56114;SDS011;41988;53.020;6.576;2022-10-31T11:08:45;24.08;;;13.88;;
56114;SDS011;41988;53.020;6.576;2022-10-31T11:11:30;22.30;;;13.27;;
56114;SDS011;41988;53.020;6.576;2022-10-31T11:14:15;18.90;;;12.07;;
56114;SDS011;41988;53.020;6.576;2022-10-31T11:17:09;20.45;;;12.73;;
56114;SDS011;41988;53.020;6.576;2022-10-31T11:23:04;18.90;;;12.25;;
56114;SDS011;41988;53.020;6.576;2022-10-31T11:26:02;15.02;;;10.73;;
56114;SDS011;41988;53.020;6.576;2022-10-31T11:28:56;20.05;;;11.57;;
56114;SDS011;41988;53.020;6.576;2022-10-31T11:31:44;14.88;;;8.70;;
56114;SDS011;41988;53.020;6.576;2022-10-31T11:34:30;14.85;;;8.25;;
56114;SDS011;41988;53.020;6.576;2022-10-31T11:37:23;16.48;;;8.38;;
56114;SDS011;41988;53.020;6.576;2022-10-31T11:40:15;13.50;;;7.90;;
56114;SDS011;41988;53.020;6.576;2022-10-31T11:43:03;9.98;;;7.03;;
56114;SDS011;41988;53.020;6.576;2022-10-31T11:45:47;11.82;;;6.97;;
56114;SDS011;41988;53.020;6.576;2022-10-31T11:48:32;9.50;;;5.63;;
56114;SDS011;41988;53.020;6.576;2022-10-31T11:51:20;11.65;;;5.15;;
56114;SDS011;41988;53.020;6.576;2022-10-31T11:54:22;11.98;;;5.90;;
56114;SDS011;41988;53.020;6.576;2022-10-31T11:57:26;14.10;;;5.00;;
56114;SDS011;41988;53.020;6.576;2022-10-31T12:03:20;11.60;;;5.07;;
56114;SDS011;41988;53.020;6.576;2022-10-31T12:09:04;12.63;;;6.25;;
56114;SDS011;41988;53.020;6.576;2022-10-31T12:24:16;12.48;;;5.78;;
56114;SDS011;41988;53.020;6.576;2022-10-31T12:39:34;15.48;;;5.47;;
56114;SDS011;41988;53.020;6.576;2022-10-31T13:00:22;8.38;;;3.40;;
56114;SDS011;41988;53.020;6.576;2022-10-31T13:06:22;6.70;;;2.78;;
56114;SDS011;41988;53.020;6.576;2022-10-31T13:09:20;9.15;;;2.95;;
56114;SDS011;41988;53.020;6.576;2022-10-31T13:12:12;9.48;;;3.00;;
56114;SDS011;41988;53.020;6.576;2022-10-31T13:15:03;12.73;;;3.30;;
56114;SDS011;41988;53.020;6.576;2022-10-31T13:17:57;9.65;;;3.00;;
56114;SDS011;41988;53.020;6.576;2022-10-31T13:20:45;10.32;;;3.38;;
56114;SDS011;41988;53.020;6.576;2022-10-31T13:23:34;12.30;;;3.22;;
56114;SDS011;41988;53.020;6.576;2022-10-31T13:26:22;6.57;;;2.97;;
56114;SDS011;41988;53.020;6.576;2022-10-31T13:32:16;9.85;;;3.42;;
56114;SDS011;41988;53.020;6.576;2022-10-31T13:35:01;8.50;;;2.97;;
56114;SDS011;41988;53.020;6.576;2022-10-31T13:37:49;10.45;;;3.67;;
56114;SDS011;41988;53.020;6.576;2022-10-31T13:47:18;10.80;;;3.70;;
56114;SDS011;41988;53.020;6.576;2022-10-31T13:50:21;10.50;;;4.30;;
56114;SDS011;41988;53.020;6.576;2022-10-31T13:59:03;12.60;;;3.80;;
56114;SDS011;41988;53.020;6.576;2022-10-31T14:01:57;8.48;;;3.55;;
56114;SDS011;41988;53.020;6.576;2022-10-31T14:04:47;10.93;;;4.30;;
56114;SDS011;41988;53.020;6.576;2022-10-31T14:07:41;11.52;;;4.35;;
56114;SDS011;41988;53.020;6.576;2022-10-31T14:10:37;10.82;;;4.72;;
56114;SDS011;41988;53.020;6.576;2022-10-31T14:13:37;9.98;;;3.85;;
56114;SDS011;41988;53.020;6.576;2022-10-31T14:16:27;13.02;;;4.40;;
56114;SDS011;41988;53.020;6.576;2022-10-31T14:19:18;13.48;;;5.07;;
56114;SDS011;41988;53.020;6.576;2022-10-31T14:22:18;15.45;;;6.72;;
56114;SDS011;41988;53.020;6.576;2022-10-31T14:28:21;15.60;;;7.45;;
56114;SDS011;41988;53.020;6.576;2022-10-31T14:34:23;16.17;;;7.57;;
56114;SDS011;41988;53.020;6.576;2022-10-31T14:40:56;16.02;;;7.80;;
56114;SDS011;41988;53.020;6.576;2022-10-31T14:46:50;13.85;;;6.68;;
56114;SDS011;41988;53.020;6.576;2022-10-31T14:49:58;11.57;;;6.93;;
56114;SDS011;41988;53.020;6.576;2022-10-31T14:52:48;11.98;;;6.88;;
56114;SDS011;41988;53.020;6.576;2022-10-31T14:55:35;14.63;;;7.30;;
56114;SDS011;41988;53.020;6.576;2022-10-31T15:01:18;17.48;;;7.75;;
56114;SDS011;41988;53.020;6.576;2022-10-31T15:07:06;14.50;;;7.97;;
56114;SDS011;41988;53.020;6.576;2022-10-31T15:10:04;15.73;;;7.20;;
56114;SDS011;41988;53.020;6.576;2022-10-31T15:16:07;14.05;;;8.38;;
56114;SDS011;41988;53.020;6.576;2022-10-31T15:18:54;14.40;;;7.70;;
56114;SDS011;41988;53.020;6.576;2022-10-31T15:21:42;13.93;;;7.78;;
56114;SDS011;41988;53.020;6.576;2022-10-31T15:24:35;19.45;;;7.55;;
56114;SDS011;41988;53.020;6.576;2022-10-31T15:27:21;14.25;;;7.15;;
56114;SDS011;41988;53.020;6.576;2022-10-31T15:30:22;11.95;;;7.50;;
56114;SDS011;41988;53.020;6.576;2022-10-31T15:33:27;15.57;;;7.95;;
56114;SDS011;41988;53.020;6.576;2022-10-31T15:36:18;11.50;;;6.60;;
56114;SDS011;41988;53.020;6.576;2022-10-31T15:39:09;18.83;;;8.32;;
56114;SDS011;41988;53.020;6.576;2022-10-31T15:41:58;17.98;;;8.63;;
56114;SDS011;41988;53.020;6.576;2022-10-31T15:44:42;15.77;;;8.48;;
56114;SDS011;41988;53.020;6.576;2022-10-31T15:47:28;17.65;;;7.65;;
56114;SDS011;41988;53.020;6.576;2022-10-31T15:50:19;14.25;;;7.05;;
56114;SDS011;41988;53.020;6.576;2022-10-31T15:53:14;12.80;;;6.47;;
56114;SDS011;41988;53.020;6.576;2022-10-31T15:56:05;14.25;;;6.35;;
56114;SDS011;41988;53.020;6.576;2022-10-31T15:58:52;14.35;;;6.50;;
56114;SDS011;41988;53.020;6.576;2022-10-31T16:01:37;11.43;;;6.20;;
56114;SDS011;41988;53.020;6.576;2022-10-31T16:04:22;8.65;;;4.90;;
56114;SDS011;41988;53.020;6.576;2022-10-31T16:10:00;8.70;;;4.43;;
56114;SDS011;41988;53.020;6.576;2022-10-31T16:12:45;15.30;;;6.07;;
56114;SDS011;41988;53.020;6.576;2022-10-31T16:15:30;13.10;;;4.65;;
56114;SDS011;41988;53.020;6.576;2022-10-31T16:18:17;14.32;;;5.10;;
56114;SDS011;41988;53.020;6.576;2022-10-31T16:21:01;11.77;;;4.60;;
56114;SDS011;41988;53.020;6.576;2022-10-31T16:23:46;15.20;;;5.47;;
56114;SDS011;41988;53.020;6.576;2022-10-31T16:26:36;10.80;;;6.07;;
56114;SDS011;41988;53.020;6.576;2022-10-31T16:29:25;10.70;;;5.70;;
56114;SDS011;41988;53.020;6.576;2022-10-31T16:32:30;10.77;;;6.45;;
56114;SDS011;41988;53.020;6.576;2022-10-31T16:35:18;14.13;;;7.25;;
56114;SDS011;41988;53.020;6.576;2022-10-31T16:38:10;16.10;;;8.40;;
56114;SDS011;41988;53.020;6.576;2022-10-31T16:40:54;12.60;;;9.18;;
56114;SDS011;41988;53.020;6.576;2022-10-31T16:43:38;13.63;;;9.90;;
56114;SDS011;41988;53.020;6.576;2022-10-31T16:46:26;16.60;;;10.02;;
56114;SDS011;41988;53.020;6.576;2022-10-31T16:49:11;16.13;;;9.55;;
56114;SDS011;41988;53.020;6.576;2022-10-31T16:51:56;17.23;;;10.23;;
56114;SDS011;41988;53.020;6.576;2022-10-31T16:54:40;17.48;;;10.13;;
56114;SDS011;41988;53.020;6.576;2022-10-31T16:57:26;17.25;;;11.43;;
56114;SDS011;41988;53.020;6.576;2022-10-31T17:00:17;15.98;;;11.45;;
56114;SDS011;41988;53.020;6.576;2022-10-31T17:03:03;16.58;;;11.23;;
56114;SDS011;41988;53.020;6.576;2022-10-31T17:05:48;18.77;;;12.32;;
56114;SDS011;41988;53.020;6.576;2022-10-31T17:08:33;18.85;;;13.35;;
56114;SDS011;41988;53.020;6.576;2022-10-31T17:11:18;21.17;;;14.00;;
56114;SDS011;41988;53.020;6.576;2022-10-31T17:14:04;22.73;;;16.95;;
56114;SDS011;41988;53.020;6.576;2022-10-31T17:16:49;23.83;;;14.57;;
56114;SDS011;41988;53.020;6.576;2022-10-31T17:19:33;22.58;;;13.93;;
56114;SDS011;41988;53.020;6.576;2022-10-31T17:22:18;22.52;;;13.68;;
56114;SDS011;41988;53.020;6.576;2022-10-31T17:25:02;19.40;;;13.98;;
56114;SDS011;41988;53.020;6.576;2022-10-31T17:27:47;22.35;;;14.18;;
56114;SDS011;41988;53.020;6.576;2022-10-31T17:30:32;24.08;;;15.30;;
56114;SDS011;41988;53.020;6.576;2022-10-31T17:33:17;22.45;;;15.43;;
56114;SDS011;41988;53.020;6.576;2022-10-31T17:36:02;23.88;;;16.50;;
56114;SDS011;41988;53.020;6.576;2022-10-31T17:38:47;23.77;;;15.35;;
56114;SDS011;41988;53.020;6.576;2022-10-31T17:41:32;26.30;;;17.75;;
56114;SDS011;41988;53.020;6.576;2022-10-31T17:44:17;25.67;;;17.90;;
56114;SDS011;41988;53.020;6.576;2022-10-31T17:47:01;29.27;;;16.80;;
56114;SDS011;41988;53.020;6.576;2022-10-31T17:49:46;27.80;;;17.77;;
56114;SDS011;41988;53.020;6.576;2022-10-31T17:52:31;30.90;;;18.70;;
56114;SDS011;41988;53.020;6.576;2022-10-31T17:55:15;28.90;;;17.70;;
56114;SDS011;41988;53.020;6.576;2022-10-31T17:58:01;36.78;;;20.02;;
56114;SDS011;41988;53.020;6.576;2022-10-31T18:00:45;31.00;;;18.98;;
56114;SDS011;41988;53.020;6.576;2022-10-31T18:03:31;30.55;;;18.83;;
56114;SDS011;41988;53.020;6.576;2022-10-31T18:06:15;35.63;;;21.65;;
56114;SDS011;41988;53.020;6.576;2022-10-31T18:09:03;35.13;;;20.88;;
56114;SDS011;41988;53.020;6.576;2022-10-31T18:11:48;33.78;;;21.85;;
56114;SDS011;41988;53.020;6.576;2022-10-31T18:14:33;40.75;;;24.02;;
56114;SDS011;41988;53.020;6.576;2022-10-31T18:17:18;36.15;;;21.90;;
56114;SDS011;41988;53.020;6.576;2022-10-31T18:20:02;36.45;;;22.98;;
56114;SDS011;41988;53.020;6.576;2022-10-31T18:22:47;36.05;;;22.55;;
56114;SDS011;41988;53.020;6.576;2022-10-31T18:25:31;39.97;;;24.02;;
56114;SDS011;41988;53.020;6.576;2022-10-31T18:28:16;36.35;;;23.73;;
56114;SDS011;41988;53.020;6.576;2022-10-31T18:31:01;39.50;;;24.95;;
56114;SDS011;41988;53.020;6.576;2022-10-31T18:33:46;39.13;;;24.25;;
56114;SDS011;41988;53.020;6.576;2022-10-31T18:36:31;40.67;;;25.10;;
56114;SDS011;41988;53.020;6.576;2022-10-31T18:39:15;38.45;;;24.40;;
56114;SDS011;41988;53.020;6.576;2022-10-31T18:42:00;38.97;;;23.70;;
56114;SDS011;41988;53.020;6.576;2022-10-31T18:44:44;42.60;;;26.83;;
56114;SDS011;41988;53.020;6.576;2022-10-31T18:47:29;43.90;;;28.00;;
56114;SDS011;41988;53.020;6.576;2022-10-31T18:50:14;41.47;;;27.10;;
56114;SDS011;41988;53.020;6.576;2022-10-31T18:52:58;42.20;;;26.88;;